Gillette Campbell County Airport
KGCC : now visible

Airfield :











YOU CAN JOIN US ON...

 
LOGIN :

Register | Disclaimer

   EN    FR    IT 

 









Legend :    VFR   Marginal VFR   IFR   Intensive IFR   Very Intensive IFR
Visi :
Ceiling :
>= 8 km
>= 3000ft
5 to 8 km
1000 to 3000 ft
1500m to 5 km
500 to 1000 ft
800 to 1500m
200 to 500 ft
< 800m
< 200 ft
Symbols :   Thunderstorms  Fog  Heavy snow  Heavy precipitations  Wind > 20 kt






- Airport Elevation : 4365 ft


KGCC - Gillette Campbell County

CURRENT METAR :
  • 291353Z AUTO 15011KT 10SM CLR 16/04 A3020 RMK AO2 SLP196 T01560039

EXPIRED METARs :
  • 291253Z AUTO 13009KT 10SM CLR 13/04 A3020 RMK AO2 SLP198 T01280039
  • 291153Z AUTO 12006KT 10SM CLR 11/05 A3020 RMK AO2 SLP200 T01110050 10117 20056 56008 $

TAF KGCC
Valid from the 29 at 12:00 until the 30 at 12:00 UTC


291120Z 2912/3012 16010KT P6SM BKN150
FM291400 15014G22KT P6SM SCT150
FM300400 13010KT P6SM VCTS BKN060CB
FM300700 17010KT P6SM OVC025
KZDV FIR / North America



MET'MAP, your aeronautical weather chart ! - Copyright ORBIFLY December 2007 - Disclaimer

ORBIFLY MET'MAP TEAM :

Programming & Development : Alexandra Zaïnal
Concept & original design : Baudouin d'Aumeries
Assistance for programming : Marc-Olivier Méhu
Technical & hardware support : Manuel Goepfert

Contact : metmap@orbifly.com




SOURCES & CREDITS :

   NOAA       Earth
Advisory